Time;durP1;ratioP1;P1;durP2;ratioP2;P2;SDS_P1;SDS_P2;PMS_P1;PMS_P2;Temp;Humidity;BMP_temperature;BMP_pressure;BME280_temperature;BME280_humidity;BME280_pressure;Samples;Min_cycle;Max_cycle;Signal;HPM_P1;HPM_P2
2023/07/19 00:00:22;;;;;;;;;;;;;;;22.17;62.53;99539.28;1087369;54;19943;-85
2023/07/19 00:01:24;;;;;;;;;;;;;;;22.16;63.36;99532.16;1087287;47;19994;-85
2023/07/19 00:02:28;;;;;;;;;;;;;;;22.23;62.33;99537.50;1087087;47;19943;-87
2023/07/19 00:03:28;;;;;;;;;;;;;;;22.20;62.75;99529.81;1087229;47;19943;-88
2023/07/19 00:04:34;;;;;;;;;;;;;;;22.21;62.82;99534.19;1087268;54;20777;-84
2023/07/19 00:05:35;;;;;;;;;;;;;;;22.29;62.29;99529.22;1087298;47;19963;-85
2023/07/19 00:06:39;;;;;;;;;;;;;;;22.22;62.83;99531.22;1088999;31;20691;-84
2023/07/19 00:07:40;;;;;;;;;;;;;;;22.19;63.19;99526.25;1087975;39;20907;-84
2023/07/19 00:08:43;;;;;;;;;;;;;;;22.17;62.93;99522.09;1087523;54;19942;-87
2023/07/19 00:09:44;;;;;;;;;;;;;;;22.20;62.87;99529.81;1087489;54;19943;-86
2023/07/19 00:10:44;;;;;;;;;;;;;;;22.21;63.08;99529.56;1087551;54;20685;-86
2023/07/19 00:11:48;;;;;;;;;;;;;;;22.23;62.75;99527.44;1087314;47;19950;-86
2023/07/19 00:12:49;;;;;;;;;;;;;;;22.16;63.58;99532.16;1091960;39;20337;-86
2023/07/19 00:13:52;;;;;;;;;;;;;;;22.07;64.34;99539.00;1087558;54;19967;-85
2023/07/19 00:14:53;;;;;;;;;;;;;;;22.01;64.14;99539.94;1087260;46;20669;-88
2023/07/19 00:15:54;;;;;;;;;;;;;;;21.94;64.80;99542.75;1087311;47;19938;-84
2023/07/19 00:16:58;;;;;;;;;;;;;;;21.94;64.60;99540.84;1087369;54;19950;-86
2023/07/19 00:17:58;;;;;;;;;;;;;;;21.97;64.34;99526.81;1087333;47;19942;-85
2023/07/19 00:18:59;;;;;;;;;;;;;;;22.01;64.51;99529.06;1087260;47;19955;-85
2023/07/19 00:20:06;;;;;;;;;;;;;;;21.95;64.59;99528.91;1087371;47;19942;-85
2023/07/19 00:21:06;;;;;;;;;;;;;;;21.89;65.30;99527.13;1087326;47;20829;-84
2023/07/19 00:22:10;;;;;;;;;;;;;;;21.86;65.49;99535.75;1087353;54;20078;-86
2023/07/19 00:23:11;;;;;;;;;;;;;;;21.81;65.56;99527.47;1087294;46;19939;-86
2023/07/19 00:24:15;;;;;;;;;;;;;;;21.78;66.08;99533.38;1088167;39;21010;-85
2023/07/19 00:25:16;;;;;;;;;;;;;;;21.75;66.47;99526.50;1087296;47;19977;-86
2023/07/19 00:26:19;;;;;;;;;;;;;;;21.71;66.67;99533.44;1087178;47;19949;-85
2023/07/19 00:27:20;;;;;;;;;;;;;;;21.72;66.44;99526.94;1087228;54;19942;-84
2023/07/19 00:28:23;;;;;;;;;;;;;;;21.75;66.14;99525.66;1087128;47;19939;-88
2023/07/19 00:29:27;;;;;;;;;;;;;;;21.79;65.62;99530.41;1089803;39;20515;-85
2023/07/19 00:30:31;;;;;;;;;;;;;;;21.83;65.78;99521.78;1087413;54;19971;-86
2023/07/19 00:31:32;;;;;;;;;;;;;;;21.85;65.72;99520.50;1087267;47;19943;-86
2023/07/19 00:32:35;;;;;;;;;;;;;;;21.95;65.04;99526.19;1087254;54;19974;-84
2023/07/19 00:33:36;;;;;;;;;;;;;;;22.02;64.78;99519.81;1087284;47;19942;-84
2023/07/19 00:34:39;;;;;;;;;;;;;;;22.01;65.09;99526.34;1087228;47;19942;-86
2023/07/19 00:35:43;;;;;;;;;;;;;;;21.95;65.27;99523.47;1087338;54;19966;-87
2023/07/19 00:36:46;;;;;;;;;;;;;;;21.92;65.60;99526.66;1088676;39;20630;-86
2023/07/19 00:37:47;;;;;;;;;;;;;;;21.86;65.88;99524.88;1087209;47;20989;-85
2023/07/19 00:38:51;;;;;;;;;;;;;;;21.82;66.24;99529.13;1087230;54;19967;-86
2023/07/19 00:39:52;;;;;;;;;;;;;;;21.86;66.04;99527.59;1087266;47;19990;-86
2023/07/19 00:40:55;;;;;;;;;;;;;;;21.84;66.19;99524.25;1087299;54;19957;-86
2023/07/19 00:41:58;;;;;;;;;;;;;;;21.84;66.47;99520.72;1087288;46;19942;-84
2023/07/19 00:43:01;;;;;;;;;;;;;;;21.83;66.21;99519.88;1087253;47;19949;-86
2023/07/19 00:44:03;;;;;;;;;;;;;;;21.84;66.38;99518.81;1087213;47;19943;-86
2023/07/19 00:45:07;;;;;;;;;;;;;;;21.87;65.96;99521.09;1089235;39;20591;-86
2023/07/19 00:46:10;;;;;;;;;;;;;;;21.93;65.79;99522.88;1087355;54;20002;-84
2023/07/19 00:47:14;;;;;;;;;;;;;;;21.91;65.88;99511.41;1087509;54;19938;-87
2023/07/19 00:48:16;;;;;;;;;;;;;;;21.93;65.72;99512.00;1087379;54;19943;-85
2023/07/19 00:49:17;;;;;;;;;;;;;;;21.93;65.83;99511.16;1087389;54;19958;-86
2023/07/19 00:50:20;;;;;;;;;;;;;;;22.00;65.93;99511.06;1087233;47;19987;-85
2023/07/19 00:51:26;;;;;;;;;;;;;;;22.03;65.86;99510.59;1088696;39;20677;-85
2023/07/19 00:52:29;;;;;;;;;;;;;;;22.02;65.75;99519.81;1087203;47;19966;-85
2023/07/19 00:53:32;;;;;;;;;;;;;;;21.96;66.39;99516.97;1087300;46;19942;-85
2023/07/19 00:54:35;;;;;;;;;;;;;;;21.92;66.21;99517.69;1087117;47;19949;-85
2023/07/19 00:55:36;;;;;;;;;;;;;;;21.89;66.49;99516.25;1087282;54;19943;-85
2023/07/19 00:56:40;;;;;;;;;;;;;;;21.90;66.40;99511.63;1087288;47;19949;-87
2023/07/19 00:57:41;;;;;;;;;;;;;;;21.88;66.84;99520.03;1087261;47;19950;-86
2023/07/19 00:58:45;;;;;;;;;;;;;;;21.92;66.37;99509.50;1087166;47;20776;-85
2023/07/19 00:59:46;;;;;;;;;;;;;;;21.95;66.18;99498.19;1087061;46;19942;-85
2023/07/19 01:00:47;;;;;;;;;;;;;;;21.97;66.10;99501.47;1087164;47;19973;-85
2023/07/19 01:01:52;;;;;;;;;;;;;;;22.02;66.02;99503.50;1087234;54;19942;-87
2023/07/19 01:02:53;;;;;;;;;;;;;;;21.99;66.54;99503.97;1087151;47;19966;-87
2023/07/19 01:03:57;;;;;;;;;;;;;;;21.89;67.15;99510.81;1091271;39;20220;-87
2023/07/19 01:04:58;;;;;;;;;;;;;;;21.87;66.78;99512.13;1087495;54;19954;-86
2023/07/19 01:06:03;;;;;;;;;;;;;;;21.81;67.27;99511.97;1087453;54;19950;-86
2023/07/19 01:07:07;;;;;;;;;;;;;;;21.83;67.54;99521.78;1087489;54;19950;-85
2023/07/19 01:08:10;;;;;;;;;;;;;;;21.86;67.03;99524.06;1087428;54;20005;-86
2023/07/19 01:09:11;;;;;;;;;;;;;;;21.86;67.31;99522.16;1087541;54;19966;-87
2023/07/19 01:10:15;;;;;;;;;;;;;;;21.86;67.09;99518.63;1087306;54;19942;-86
2023/07/19 01:11:17;;;;;;;;;;;;;;;21.90;67.06;99517.91;1087175;47;19942;-85
2023/07/19 01:12:19;;;;;;;;;;;;;;;21.83;67.46;99519.88;1087235;47;19968;-86
2023/07/19 01:13:22;;;;;;;;;;;;;;;21.78;67.79;99517.03;1087232;54;19966;-85
2023/07/19 01:14:23;;;;;;;;;;;;;;;21.78;67.74;99519.75;1087338;54;19950;-87
2023/07/19 01:15:28;;;;;;;;;;;;;;;21.73;67.85;99523.19;1087184;47;19998;-85
2023/07/19 01:16:28;;;;;;;;;;;;;;;21.79;67.47;99518.69;1087198;47;19955;-86
2023/07/19 01:17:32;;;;;;;;;;;;;;;21.79;67.89;99511.34;1087183;47;19942;-87
2023/07/19 01:18:33;;;;;;;;;;;;;;;21.71;68.35;99524.47;1087160;47;19942;-86
2023/07/19 01:19:36;;;;;;;;;;;;;;;21.65;68.46;99516.16;1087107;47;19942;-86
2023/07/19 01:20:37;;;;;;;;;;;;;;;21.65;68.38;99524.31;1087256;47;19985;-85
2023/07/19 01:21:40;;;;;;;;;;;;;;;21.68;68.31;99525.75;1087182;47;19943;-84
2023/07/19 01:22:46;;;;;;;;;;;;;;;21.69;68.10;99521.16;1087094;47;19954;-83
2023/07/19 01:23:50;;;;;;;;;;;;;;;21.69;68.62;99519.25;1087178;54;19998;-84
2023/07/19 01:24:51;;;;;;;;;;;;;;;21.71;68.08;99524.47;1087181;47;19991;-84
2023/07/19 01:25:55;;;;;;;;;;;;;;;21.64;68.51;99517.22;1087199;46;19946;-84
2023/07/19 01:26:56;;;;;;;;;;;;;;;21.62;68.61;99523.97;1087274;54;19967;-84
2023/07/19 01:28:00;;;;;;;;;;;;;;;21.55;69.15;99524.00;1087358;54;19942;-84
2023/07/19 01:29:01;;;;;;;;;;;;;;;21.52;69.21;99527.22;1087123;47;19942;-83
2023/07/19 01:30:05;;;;;;;;;;;;;;;21.58;68.67;99530.91;1087296;54;19943;-83
2023/07/19 01:31:06;;;;;;;;;;;;;;;21.53;69.07;99531.59;1087454;54;19943;-84
2023/07/19 01:32:10;;;;;;;;;;;;;;;21.44;69.62;99533.78;1087464;54;19943;-84
2023/07/19 01:33:12;;;;;;;;;;;;;;;21.39;69.71;99538.25;1087129;47;19988;-83
2023/07/19 01:34:15;;;;;;;;;;;;;;;21.32;70.26;99539.16;1087112;47;19942;-84
2023/07/19 01:35:16;;;;;;;;;;;;;;;21.31;70.36;99537.50;1087171;54;19942;-83
2023/07/19 01:36:20;;;;;;;;;;;;;;;21.30;70.09;99540.47;1087267;47;19942;-85
2023/07/19 01:37:21;;;;;;;;;;;;;;;21.23;70.50;99539.69;1087237;54;19951;-84
2023/07/19 01:38:27;;;;;;;;;;;;;;;21.21;70.47;99537.19;1087398;47;19942;-84
2023/07/19 01:39:28;;;;;;;;;;;;;;;21.16;70.90;99545.22;1087149;47;19946;-84
2023/07/19 01:40:31;;;;;;;;;;;;;;;21.15;70.85;99543.56;1087183;47;19977;-84
2023/07/19 01:41:32;;;;;;;;;;;;;;;21.19;70.84;99547.47;1087216;54;20013;-85
2023/07/19 01:42:35;;;;;;;;;;;;;;;21.18;70.83;99540.38;1087177;47;19943;-85
2023/07/19 01:43:36;;;;;;;;;;;;;;;21.18;70.92;99537.66;1087126;47;19954;-84
2023/07/19 01:44:39;;;;;;;;;;;;;;;21.18;71.14;99543.09;1089063;39;20556;-84
2023/07/19 01:45:41;;;;;;;;;;;;;;;21.17;70.73;99541.41;1087134;47;19953;-84
2023/07/19 01:46:44;;;;;;;;;;;;;;;21.14;71.40;99539.19;1087272;46;19942;-84
2023/07/19 01:47:45;;;;;;;;;;;;;;;21.14;71.45;99539.19;1087376;54;19942;-84
2023/07/19 01:48:48;;;;;;;;;;;;;;;21.17;71.16;99536.84;1087391;54;19949;-85
2023/07/19 01:49:51;;;;;;;;;;;;;;;21.16;71.17;99537.06;1087367;54;19942;-84
2023/07/19 01:50:54;;;;;;;;;;;;;;;21.15;71.48;99540.84;1087064;47;19949;-85
2023/07/19 01:51:55;;;;;;;;;;;;;;;21.12;71.69;99538.56;1087196;47;19943;-84
2023/07/19 01:52:58;;;;;;;;;;;;;;;21.11;71.81;99539.63;1087146;47;19967;-85
2023/07/19 01:54:02;;;;;;;;;;;;;;;21.11;71.53;99534.19;1087120;54;19978;-84
2023/07/19 01:55:06;;;;;;;;;;;;;;;21.12;71.46;99544.00;1087391;54;19943;-85
2023/07/19 01:56:07;;;;;;;;;;;;;;;21.14;71.16;99537.28;1087078;47;19975;-84
2023/07/19 01:57:10;;;;;;;;;;;;;;;21.14;71.49;99537.28;1087120;47;19943;-84
2023/07/19 01:58:11;;;;;;;;;;;;;;;21.19;71.09;99537.44;1087037;47;19943;-84
2023/07/19 01:59:15;;;;;;;;;;;;;;;21.24;70.55;99534.03;1086972;47;19949;-84
2023/07/19 02:00:16;;;;;;;;;;;;;;;21.23;70.78;99534.25;1087084;47;19950;-84
2023/07/19 02:01:20;;;;;;;;;;;;;;;21.23;70.99;99536.97;1087100;54;20627;-85
2023/07/19 02:02:21;;;;;;;;;;;;;;;21.23;70.74;99535.09;1087108;47;19977;-86
2023/07/19 02:03:24;;;;;;;;;;;;;;;21.23;70.60;99543.25;1088623;39;20285;-84
2023/07/19 02:04:26;;;;;;;;;;;;;;;21.29;70.30;99538.78;1087082;47;20015;-85
2023/07/19 02:05:29;;;;;;;;;;;;;;;21.31;70.40;99532.06;1087141;54;19942;-86
2023/07/19 02:06:30;;;;;;;;;;;;;;;21.35;70.15;99535.16;1087431;54;19966;-85
2023/07/19 02:07:34;;;;;;;;;;;;;;;21.35;70.26;99527.81;1087101;47;19942;-84
2023/07/19 02:08:35;;;;;;;;;;;;;;;21.38;70.05;99536.56;1087007;47;21064;-84
2023/07/19 02:09:41;;;;;;;;;;;;;;;21.40;69.98;99534.47;1086983;54;19942;-85
2023/07/19 02:10:42;;;;;;;;;;;;;;;21.40;70.04;99535.28;1087159;47;20011;-86
2023/07/19 02:11:47;;;;;;;;;;;;;;;21.39;70.00;99540.97;1087212;47;19942;-86
2023/07/19 02:12:48;;;;;;;;;;;;;;;21.36;69.78;99544.97;1090554;39;20864;-84
2023/07/19 02:13:51;;;;;;;;;;;;;;;21.39;70.01;99546.41;1087144;47;19978;-85
2023/07/19 02:14:54;;;;;;;;;;;;;;;21.35;69.73;99543.31;1087037;54;19943;-85
2023/07/19 02:15:57;;;;;;;;;;;;;;;21.34;69.88;99544.38;1087046;47;19942;-84
2023/07/19 02:16:58;;;;;;;;;;;;;;;21.32;70.10;99536.44;1087058;47;19974;-86
2023/07/19 02:18:01;;;;;;;;;;;;;;;21.23;70.56;99545.97;1087151;47;19967;-86
2023/07/19 02:19:05;;;;;;;;;;;;;;;21.18;70.76;99548.53;1087074;54;19946;-86
2023/07/19 02:20:09;;;;;;;;;;;;;;;21.20;70.41;99546.41;1087336;54;19967;-85
2023/07/19 02:21:10;;;;;;;;;;;;;;;21.18;70.81;99543.09;1089650;31;20758;-84
2023/07/19 02:22:15;;;;;;;;;;;;;;;21.18;70.84;99537.66;1087070;54;20853;-85
2023/07/19 02:23:18;;;;;;;;;;;;;;;21.16;70.73;99545.22;1087041;47;19966;-85
2023/07/19 02:24:22;;;;;;;;;;;;;;;21.14;71.05;99541.91;1087016;47;20923;-85
2023/07/19 02:25:25;;;;;;;;;;;;;;;21.10;71.40;99546.09;1087079;47;19942;-86
2023/07/19 02:26:30;;;;;;;;;;;;;;;21.05;71.83;99538.63;1087478;47;19943;-85
2023/07/19 02:27:31;;;;;;;;;;;;;;;21.03;71.59;99538.88;1087472;47;19942;-85
2023/07/19 02:28:38;;;;;;;;;;;;;;;21.02;71.50;99539.06;1087268;46;19946;-85
2023/07/19 02:29:39;;;;;;;;;;;;;;;21.03;71.62;99530.72;1087308;47;19943;-85
2023/07/19 02:30:46;;;;;;;;;;;;;;;21.08;71.32;99537.34;1087533;46;19942;-86
2023/07/19 02:31:49;;;;;;;;;;;;;;;21.08;71.52;99540.06;1087386;47;19942;-84
2023/07/19 02:32:52;;;;;;;;;;;;;;;21.00;71.60;99539.31;1087454;54;19943;-84
2023/07/19 02:33:53;;;;;;;;;;;;;;;20.96;71.92;99540.00;1091279;39;20693;-84
2023/07/19 02:34:56;;;;;;;;;;;;;;;20.94;72.23;99550.25;1087355;47;19949;-85
2023/07/19 02:35:57;;;;;;;;;;;;;;;20.91;72.42;99543.38;1087325;47;19942;-85
2023/07/19 02:37:00;;;;;;;;;;;;;;;20.88;72.53;99543.81;1087417;47;19968;-84
2023/07/19 02:38:01;;;;;;;;;;;;;;;20.86;72.86;99546.78;1087339;47;19942;-85
2023/07/19 02:39:05;;;;;;;;;;;;;;;20.85;72.75;99549.72;1087379;54;20036;-84
2023/07/19 02:40:06;;;;;;;;;;;;;;;20.79;73.14;99545.16;1087354;47;19966;-86
2023/07/19 02:41:13;;;;;;;;;;;;;;;20.78;73.64;99540.81;1087309;47;19947;-85
2023/07/19 02:42:13;;;;;;;;;;;;;;;20.76;73.50;99545.66;1087443;54;19999;-85
2023/07/19 02:43:17;;;;;;;;;;;;;;;20.78;73.58;99529.97;1087673;54;19942;-86
2023/07/19 02:44:18;;;;;;;;;;;;;;;20.75;73.56;99535.81;1087412;54;20042;-85
2023/07/19 02:45:21;;;;;;;;;;;;;;;20.76;73.44;99540.22;1087389;47;19967;-84
2023/07/19 02:46:22;;;;;;;;;;;;;;;20.78;73.79;99532.69;1087396;54;19966;-85
2023/07/19 02:47:26;;;;;;;;;;;;;;;20.80;73.47;99530.53;1087674;54;19967;-85
2023/07/19 02:48:27;;;;;;;;;;;;;;;20.82;73.18;99528.44;1087429;47;19967;-84
2023/07/19 02:49:31;;;;;;;;;;;;;;;20.84;73.15;99531.75;1087350;54;19942;-86
2023/07/19 02:50:32;;;;;;;;;;;;;;;20.79;73.54;99532.44;1087737;54;19947;-86
2023/07/19 02:51:35;;;;;;;;;;;;;;;20.76;73.94;99541.03;1087487;47;19992;-86
2023/07/19 02:52:36;;;;;;;;;;;;;;;20.75;73.51;99527.69;1089415;39;20240;-85
2023/07/19 02:53:40;;;;;;;;;;;;;;;20.76;73.95;99537.50;1087495;47;19942;-85
2023/07/19 02:54:41;;;;;;;;;;;;;;;20.77;73.65;99539.16;1087526;54;19949;-86
2023/07/19 02:55:45;;;;;;;;;;;;;;;20.71;73.92;99541.66;1087713;54;19942;-85
2023/07/19 02:56:48;;;;;;;;;;;;;;;20.70;74.27;99542.72;1087316;47;19959;-84
2023/07/19 02:57:52;;;;;;;;;;;;;;;20.70;74.14;99545.44;1087334;47;19938;-85
2023/07/19 02:58:53;;;;;;;;;;;;;;;20.68;74.46;99544.00;1087446;47;20021;-85
2023/07/19 02:59:56;;;;;;;;;;;;;;;20.62;74.29;99545.72;1087394;54;19942;-84
2023/07/19 03:00:57;;;;;;;;;;;;;;;20.59;74.44;99548.91;1087337;47;20018;-84
2023/07/19 03:02:00;;;;;;;;;;;;;;;20.52;74.88;99548.09;1087342;47;19939;-85
2023/07/19 03:03:01;;;;;;;;;;;;;;;20.53;74.83;99547.91;1087377;47;19943;-85
2023/07/19 03:04:06;;;;;;;;;;;;;;;20.46;75.12;99554.44;1087448;54;19967;-85
2023/07/19 03:05:07;;;;;;;;;;;;;;;20.44;75.17;99551.09;1087684;54;19946;-84
2023/07/19 03:06:11;;;;;;;;;;;;;;;20.39;75.19;99547.19;1087387;47;19946;-83
2023/07/19 03:07:12;;;;;;;;;;;;;;;20.37;75.40;99560.16;1087451;54;19943;-84
2023/07/19 03:08:15;;;;;;;;;;;;;;;20.32;75.28;99559.16;1087362;46;19942;-84
2023/07/19 03:09:16;;;;;;;;;;;;;;;20.34;74.94;99559.75;1087262;54;19949;-84
2023/07/19 03:10:19;;;;;;;;;;;;;;;20.32;75.14;99556.44;1087582;47;19950;-83
2023/07/19 03:11:20;;;;;;;;;;;;;;;20.33;74.93;99558.91;1087671;54;19943;-85
2023/07/19 03:12:26;;;;;;;;;;;;;;;20.32;74.66;99561.88;1087670;54;19942;-85
2023/07/19 03:13:27;;;;;;;;;;;;;;;20.30;74.73;99570.22;1087641;47;19943;-85
2023/07/19 03:14:30;;;;;;;;;;;;;;;20.38;74.61;99566.41;1087515;47;19942;-83
2023/07/19 03:15:32;;;;;;;;;;;;;;;20.38;74.28;99572.66;1087634;47;19967;-85
2023/07/19 03:16:36;;;;;;;;;;;;;;;20.35;74.05;99573.09;1087644;47;19967;-84
2023/07/19 03:17:37;;;;;;;;;;;;;;;20.31;74.49;99574.59;1087532;47;19943;-84
2023/07/19 03:18:39;;;;;;;;;;;;;;;20.29;74.50;99567.72;1087554;47;19991;-84
2023/07/19 03:19:42;;;;;;;;;;;;;;;20.31;74.30;99571.88;1087612;47;19942;-83
2023/07/19 03:20:43;;;;;;;;;;;;;;;20.26;74.44;99571.72;1087665;54;19943;-85
2023/07/19 03:21:48;;;;;;;;;;;;;;;20.25;74.72;99568.19;1087841;54;19942;-84
2023/07/19 03:22:49;;;;;;;;;;;;;;;20.25;74.28;99573.59;1087657;47;19949;-84
2023/07/19 03:23:52;;;;;;;;;;;;;;;20.24;74.58;99576.53;1087668;47;19980;-84
2023/07/19 03:24:53;;;;;;;;;;;;;;;20.31;73.91;99577.28;1087607;54;19942;-85
2023/07/19 03:25:58;;;;;;;;;;;;;;;20.32;74.00;99572.72;1087556;54;19973;-84
2023/07/19 03:26:59;;;;;;;;;;;;;;;20.30;74.20;99574.81;1087644;47;19991;-84
2023/07/19 03:28:05;;;;;;;;;;;;;;;20.29;74.36;99579.41;1087449;54;19942;-85
2023/07/19 03:29:06;;;;;;;;;;;;;;;20.32;74.29;99578.97;1087780;54;19966;-84
2023/07/19 03:30:10;;;;;;;;;;;;;;;20.28;74.44;99575.03;1087700;54;19967;-84
2023/07/19 03:31:11;;;;;;;;;;;;;;;20.27;74.77;99578.81;1087789;54;19942;-83
2023/07/19 03:32:14;;;;;;;;;;;;;;;20.28;74.23;99580.47;1087434;47;19954;-84
2023/07/19 03:33:16;;;;;;;;;;;;;;;20.31;74.55;99576.47;1087524;51;19943;-84
2023/07/19 03:34:19;;;;;;;;;;;;;;;20.32;74.16;99575.44;1087428;47;19943;-83
2023/07/19 03:35:20;;;;;;;;;;;;;;;20.35;73.83;99583.97;1087483;54;19942;-85
2023/07/19 03:36:23;;;;;;;;;;;;;;;20.37;74.08;99576.44;1087788;54;19942;-85
2023/07/19 03:37:24;;;;;;;;;;;;;;;20.35;73.77;99578.53;1087581;54;19949;-84
2023/07/19 03:38:25;;;;;;;;;;;;;;;20.33;73.94;99575.19;1087512;47;19954;-84
2023/07/19 03:39:31;;;;;;;;;;;;;;;20.35;74.22;99577.72;1087449;47;19949;-85
2023/07/19 03:40:32;;;;;;;;;;;;;;;20.32;74.18;99581.69;1087571;46;19950;-84
2023/07/19 03:41:35;;;;;;;;;;;;;;;20.26;74.62;99582.56;1087608;54;19954;-84
2023/07/19 03:42:36;;;;;;;;;;;;;;;20.26;74.43;99582.56;1087489;47;19943;-84
2023/07/19 03:43:42;;;;;;;;;;;;;;;20.21;74.99;99582.41;1087723;47;20483;-85
2023/07/19 03:44:43;;;;;;;;;;;;;;;20.19;74.69;99584.50;1087731;46;19947;-84
2023/07/19 03:45:47;;;;;;;;;;;;;;;20.17;75.34;99581.16;1087762;47;20058;-84
2023/07/19 03:46:48;;;;;;;;;;;;;;;20.15;75.06;99584.13;1087636;47;19927;-85
2023/07/19 03:47:51;;;;;;;;;;;;;;;20.14;75.62;99587.88;1087784;47;19967;-83
2023/07/19 03:48:52;;;;;;;;;;;;;;;20.09;75.72;99580.38;1087523;47;19955;-82
2023/07/19 03:49:55;;;;;;;;;;;;;;;20.05;75.90;99592.72;1087462;47;19943;-83
2023/07/19 03:50:57;;;;;;;;;;;;;;;20.05;75.69;99594.59;1087571;47;20296;-85
2023/07/19 03:52:01;;;;;;;;;;;;;;;20.04;76.09;99592.94;1091189;39;20194;-83
2023/07/19 03:53:07;;;;;;;;;;;;;;;20.05;76.26;99586.47;1087615;47;20015;-85
2023/07/19 03:54:10;;;;;;;;;;;;;;;20.05;75.79;99598.13;1087458;47;19967;-83
2023/07/19 03:55:11;;;;;;;;;;;;;;;20.09;75.39;99601.25;1087374;47;20033;-85
2023/07/19 03:56:12;;;;;;;;;;;;;;;20.08;75.44;99592.28;1087528;47;19942;-84
2023/07/19 03:57:16;;;;;;;;;;;;;;;20.10;75.40;99594.78;1087464;47;19942;-83
2023/07/19 03:58:16;;;;;;;;;;;;;;;20.10;74.86;99589.34;1087480;47;19942;-84
2023/07/19 03:59:22;;;;;;;;;;;;;;;20.07;75.33;99595.22;1087359;47;19943;-84
2023/07/19 04:00:25;;;;;;;;;;;;;;;20.11;74.80;99601.88;1087628;47;19966;-85
2023/07/19 04:01:28;;;;;;;;;;;;;;;20.13;74.75;99594.34;1087500;54;19966;-85
2023/07/19 04:02:30;;;;;;;;;;;;;;;20.12;74.52;99591.88;1087794;47;19947;-85
2023/07/19 04:03:31;;;;;;;;;;;;;;;20.14;74.65;99595.16;1087705;47;19966;-85
2023/07/19 04:04:36;;;;;;;;;;;;;;;20.13;74.52;99596.22;1088407;39;20138;-84
2023/07/19 04:05:36;;;;;;;;;;;;;;;20.14;74.36;99595.16;1087597;54;19938;-85
2023/07/19 04:06:40;;;;;;;;;;;;;;;20.13;74.26;99596.22;1087902;54;19946;-83
2023/07/19 04:07:42;;;;;;;;;;;;;;;20.13;73.84;99596.22;1087821;47;19965;-85
2023/07/19 04:08:45;;;;;;;;;;;;;;;20.16;74.08;99595.78;1087734;47;19991;-85
2023/07/19 04:09:46;;;;;;;;;;;;;;;20.12;73.94;99594.56;1087640;54;19942;-84
2023/07/19 04:10:49;;;;;;;;;;;;;;;20.10;74.38;99589.34;1087821;47;19943;-86
2023/07/19 04:11:51;;;;;;;;;;;;;;;20.12;74.04;99592.69;1087747;54;19958;-86
2023/07/19 04:12:51;;;;;;;;;;;;;;;20.12;74.20;99591.88;1087885;54;19942;-83
2023/07/19 04:13:55;;;;;;;;;;;;;;;20.09;74.16;99599.38;1087939;54;19942;-85
2023/07/19 04:14:58;;;;;;;;;;;;;;;20.10;73.96;99590.19;1087990;54;19942;-84
2023/07/19 04:16:04;;;;;;;;;;;;;;;20.12;74.22;99589.16;1087567;47;19991;-84
2023/07/19 04:17:05;;;;;;;;;;;;;;;20.12;74.11;99591.88;1087711;47;20277;-84
2023/07/19 04:18:08;;;;;;;;;;;;;;;20.10;74.25;99595.63;1087593;47;19950;-85
2023/07/19 04:19:10;;;;;;;;;;;;;;;20.13;74.27;99594.34;1087824;47;19939;-85
2023/07/19 04:20:13;;;;;;;;;;;;;;;20.12;74.53;99591.88;1087654;54;19949;-85
2023/07/19 04:21:14;;;;;;;;;;;;;;;20.13;74.07;99597.06;1087704;47;19966;-85
2023/07/19 04:22:17;;;;;;;;;;;;;;;20.19;74.03;99596.19;1087861;47;19943;-85
2023/07/19 04:23:18;;;;;;;;;;;;;;;20.18;73.73;99594.50;1088096;47;19938;-84
2023/07/19 04:24:22;;;;;;;;;;;;;;;20.19;73.67;99598.88;1088029;47;20019;-85
2023/07/19 04:25:24;;;;;;;;;;;;;;;20.19;73.88;99598.06;1088074;47;20300;-85
2023/07/19 04:26:25;;;;;;;;;;;;;;;20.23;73.43;99599.28;1087464;47;19943;-83
2023/07/19 04:27:30;;;;;;;;;;;;;;;20.21;73.40;99593.25;1087377;47;19946;-86
2023/07/19 04:28:31;;;;;;;;;;;;;;;20.26;73.13;99586.09;1087297;47;19943;-84
2023/07/19 04:29:35;;;;;;;;;;;;;;;20.22;73.34;99590.31;1087806;39;20191;-84
2023/07/19 04:30:38;;;;;;;;;;;;;;;20.22;73.01;99595.75;1087694;47;19942;-83
2023/07/19 04:31:41;;;;;;;;;;;;;;;20.20;73.19;99592.41;1087829;47;19951;-85
2023/07/19 04:32:42;;;;;;;;;;;;;;;20.25;72.98;99586.31;1087861;54;19942;-86
2023/07/19 04:33:46;;;;;;;;;;;;;;;20.25;73.04;99587.19;1087915;54;19949;-85
2023/07/19 04:34:47;;;;;;;;;;;;;;;20.25;73.01;99583.63;1087465;47;19950;-85
2023/07/19 04:35:51;;;;;;;;;;;;;;;20.30;72.50;99581.09;1087610;54;19950;-84
2023/07/19 04:36:52;;;;;;;;;;;;;;;20.33;72.68;99596.09;1087974;46;19950;-85
2023/07/19 04:37:56;;;;;;;;;;;;;;;20.35;72.33;99589.38;1087995;47;19950;-86
2023/07/19 04:38:57;;;;;;;;;;;;;;;20.32;72.22;99586.28;1087996;47;19942;-85
2023/07/19 04:40:01;;;;;;;;;;;;;;;20.39;72.15;99579.75;1087754;47;19942;-86
2023/07/19 04:41:02;;;;;;;;;;;;;;;20.38;72.10;99583.53;1087798;47;19943;-86
2023/07/19 04:42:08;;;;;;;;;;;;;;;20.47;71.69;99581.34;1088221;47;19966;-86
2023/07/19 04:43:09;;;;;;;;;;;;;;;20.46;71.82;99582.41;1087811;47;19939;-84
2023/07/19 04:44:13;;;;;;;;;;;;;;;20.53;71.67;99585.91;1087697;47;19942;-85
2023/07/19 04:45:14;;;;;;;;;;;;;;;20.47;71.71;99585.97;1087431;47;19966;-83
2023/07/19 04:46:21;;;;;;;;;;;;;;;20.53;71.24;99576.91;1087448;47;19994;-85
2023/07/19 04:47:24;;;;;;;;;;;;;;;20.52;71.29;99577.97;1087427;54;19954;-86
2023/07/19 04:48:25;;;;;;;;;;;;;;;20.61;70.83;99581.25;1087190;47;19951;-83
2023/07/19 04:49:28;;;;;;;;;;;;;;;20.68;70.63;99574.72;1087295;54;20010;-84
2023/07/19 04:50:30;;;;;;;;;;;;;;;20.69;70.49;99578.25;1087271;47;19998;-85
2023/07/19 04:51:33;;;;;;;;;;;;;;;20.76;70.27;99578.22;1087221;47;19949;-84
2023/07/19 04:52:34;;;;;;;;;;;;;;;20.66;70.51;99584.97;1089697;39;20269;-84
2023/07/19 04:53:38;;;;;;;;;;;;;;;20.71;70.52;99576.97;1087262;47;19954;-84
2023/07/19 04:54:39;;;;;;;;;;;;;;;20.81;70.08;99576.50;1087231;47;20028;-84
2023/07/19 04:55:44;;;;;;;;;;;;;;;20.87;69.62;99581.03;1087163;46;19943;-83
2023/07/19 04:56:46;;;;;;;;;;;;;;;20.93;69.68;99578.47;1087383;47;19943;-84
2023/07/19 04:57:49;;;;;;;;;;;;;;;20.97;69.43;99576.97;1087375;54;19943;-85
2023/07/19 04:58:50;;;;;;;;;;;;;;;21.01;69.04;99576.28;1087296;47;19950;-85
2023/07/19 04:59:53;;;;;;;;;;;;;;;21.08;68.79;99570.81;1087066;47;19942;-84
2023/07/19 05:00:54;;;;;;;;;;;;;;;21.09;68.58;99579.78;1087203;47;19967;-85
2023/07/19 05:02:00;;;;;;;;;;;;;;;21.09;68.26;99582.50;1087207;47;19967;-85
2023/07/19 05:03:00;;;;;;;;;;;;;;;21.09;68.45;99580.63;1087315;54;19967;-84
2023/07/19 05:04:04;;;;;;;;;;;;;;;21.08;68.51;99567.22;1087427;47;19943;-84
2023/07/19 05:05:05;;;;;;;;;;;;;;;21.14;67.96;99579.94;1087234;47;21069;-85
2023/07/19 05:06:09;;;;;;;;;;;;;;;21.07;68.29;99574.56;1087216;47;19938;-84
2023/07/19 05:07:10;;;;;;;;;;;;;;;20.97;68.18;99574.25;1087195;47;19954;-86
2023/07/19 05:08:13;;;;;;;;;;;;;;;20.96;68.28;99573.44;1087263;47;20022;-85
2023/07/19 05:09:14;;;;;;;;;;;;;;;21.06;68.07;99580.25;1087178;47;19966;-85
2023/07/19 05:10:17;;;;;;;;;;;;;;;21.08;67.98;99569.94;1087150;47;19943;-85
2023/07/19 05:11:19;;;;;;;;;;;;;;;21.09;67.66;99571.63;1087194;47;19943;-84
2023/07/19 05:12:23;;;;;;;;;;;;;;;21.03;68.01;99568.75;1087321;47;19942;-85
2023/07/19 05:13:24;;;;;;;;;;;;;;;21.06;67.59;99566.66;1087271;47;19942;-84
2023/07/19 05:14:28;;;;;;;;;;;;;;;21.04;68.04;99572.28;1087077;47;20528;-82
2023/07/19 05:15:28;;;;;;;;;;;;;;;21.13;67.43;99572.84;1087083;47;19943;-83
2023/07/19 05:16:32;;;;;;;;;;;;;;;21.19;67.09;99566.50;1086957;47;19946;-82
2023/07/19 05:17:36;;;;;;;;;;;;;;;21.20;67.41;99562.72;1086892;47;19998;-85
2023/07/19 05:18:40;;;;;;;;;;;;;;;21.27;66.81;99568.91;1086798;47;19943;-85
2023/07/19 05:19:40;;;;;;;;;;;;;;;21.34;66.88;99558.81;1086969;47;19973;-80
2023/07/19 05:20:52;;;;;;;;;;;;;;;21.25;66.67;99560.16;1086601;54;19939;-82
2023/07/19 05:22:00;;;;;;;;;;;;;;;21.30;66.71;99568.47;1084840;54;19946;-82
2023/07/19 05:23:18;;;;;;;;;;;;;;;21.35;66.55;99552.28;1085165;47;19951;-84
2023/07/19 05:24:19;;;;;;;;;;;;;;;21.43;66.07;99558.50;1085649;47;19953;-84
2023/07/19 05:25:25;;;;;;;;;;;;;;;21.48;66.04;99558.63;1086667;47;20560;-83
2023/07/19 05:26:30;;;;;;;;;;;;;;;21.48;66.02;99554.03;1087672;39;20915;-85